Airfield :
LOGIN :

Register | Disclaimer

   EN    FR    IT 

 










Legend :    VFR   Marginal VFR   IFR   Intensive IFR   Very Intensive IFR
Visi :
Ceiling :
>= 8 km
>= 3000ft
5 to 8 km
1000 to 3000 ft
1500m to 5 km
500 to 1000 ft
800 to 1500m
200 to 500 ft
< 800m
< 200 ft
Symbols :   Thunderstorms  Fog  Heavy snow  Heavy precipitations  Wind > 20 kt
SIGMETs :     Misc.  Thunderstorms  Icing  Turbulence  Mountain Waves  Volcanic Ashes







- Airport Elevation : 978 ft
- IATA code : LNZ


LOWL - Linz

CURRENT METAR :
  • 300020Z AUTO 26004KT 9999 FEW090 08/04 Q1027

EXPIRED METARs :
  • 292350Z AUTO 25005KT 9999 NCD 09/05 Q1026
  • 292320Z AUTO 25005KT 9999 NCD 09/05 Q1026
  • 292250Z AUTO 24006KT 9999 NCD 09/05 Q1026
  • 292220Z AUTO 27005KT 9999 NCD 10/05 Q1026
  • 292150Z AUTO 24009KT 9999 NCD 11/05 Q1026
  • 292120Z AUTO 24009KT 9999 NCD 11/05 Q1026

TAF TAF LOWL
Valid from the 30 at 00:00 until the 31 at 00:00 UTC


292315Z 3000/3024 26004KT 9999 SCT035 BKN060 TX19/3015Z TN08/3005Z
BECMG 3009/3012 30006KT SCT050
BECMG 3016/3018 07005KT CAVOK
No reported NOTAMs for that airfield.



MET'MAP, your aeronautical weather chart ! - Copyright ORBIFLY December 2007 - Disclaimer

ORBIFLY MET'MAP TEAM :

Programming & Development : Alexandra Zaïnal
Concept & Development : Baudouin d'Aumeries
Co-Development & Prog : Marc-Olivier Méhu
Technical & hardware support : Manuel Goepfert

Contact : metmap@orbifly.com




SOURCES & CREDITS :

   NOAA